Time;durP1;ratioP1;P1;durP2;ratioP2;P2;SDS_P1;SDS_P2;PMS_P1;PMS_P2;Temp;Humidity;BMP_temperature;BMP_pressure;BME280_temperature;BME280_humidity;BME280_pressure;Samples;Min_cycle;Max_cycle;Signal;HPM_P1;HPM_P2
2023/04/25 00:00:38;;;;;;;2.30;2.10;;;;;;;9.96;97.06;99718.31;5076752;28;20275;-73
2023/04/25 00:03:05;;;;;;;2.40;2.20;;;;;;;9.96;97.12;99722.66;5075232;28;20203;-73
2023/04/25 00:05:31;;;;;;;2.80;2.60;;;;;;;9.95;97.06;99724.38;5075719;28;20189;-74
2023/04/25 00:07:57;;;;;;;2.70;2.30;;;;;;;9.96;97.09;99726.06;5077070;28;20204;-72
2023/04/25 00:10:22;;;;;;;2.60;2.40;;;;;;;9.95;97.27;99720.94;5059402;28;20178;-72
2023/04/25 00:12:48;;;;;;;2.17;2.07;;;;;;;9.91;97.39;99714.94;5078271;28;20193;-73
2023/04/25 00:15:14;;;;;;;2.53;2.33;;;;;;;9.86;97.70;99711.59;5074881;28;20196;-72
2023/04/25 00:17:39;;;;;;;2.70;2.50;;;;;;;9.81;97.90;99711.66;5079318;28;20197;-73
2023/04/25 00:20:06;;;;;;;2.40;2.20;;;;;;;9.77;97.95;99725.50;5077997;28;20224;-72
2023/04/25 00:22:34;;;;;;;2.60;2.40;;;;;;;9.77;98.36;99717.75;5073589;28;20739;-72
2023/04/25 00:25:00;;;;;;;3.00;2.30;;;;;;;9.79;98.54;99722.88;5077661;28;20213;-73
2023/04/25 00:27:26;;;;;;;2.87;2.67;;;;;;;9.83;98.58;99716.81;5079440;28;20197;-72
2023/04/25 00:29:52;;;;;;;2.83;2.63;;;;;;;9.89;98.65;99729.66;5077519;28;20334;-73
2023/04/25 00:32:17;;;;;;;3.00;2.80;;;;;;;9.90;98.65;99719.28;5075743;28;20202;-73
2023/04/25 00:34:42;;;;;;;3.60;3.30;;;;;;;9.92;99.08;99711.47;5079233;28;20193;-72
2023/04/25 00:37:07;;;;;;;2.97;2.77;;;;;;;9.90;99.61;99719.28;5076061;28;20684;-72
2023/04/25 00:39:33;;;;;;;3.70;3.40;;;;;;;9.86;99.53;99717.59;5080895;28;20221;-73
2023/04/25 00:42:00;;;;;;;2.90;2.70;;;;;;;9.82;99.76;99709.94;5062439;28;20196;-72
2023/04/25 00:44:27;;;;;;;3.17;2.87;;;;;;;9.76;100.00;99710.88;5079593;28;20775;-73
2023/04/25 00:46:54;;;;;;;3.47;3.17;;;;;;;9.72;100.00;99701.44;5079175;28;20216;-72
2023/04/25 00:49:19;;;;;;;4.10;3.13;;;;;;;9.71;100.00;99712.66;5080367;28;20185;-72
2023/04/25 00:51:45;;;;;;;3.37;3.07;;;;;;;9.71;100.00;99699.75;5079078;28;20247;-74
2023/04/25 00:54:12;;;;;;;3.00;2.80;;;;;;;9.76;100.00;99705.72;5079619;28;20193;-72
2023/04/25 00:56:38;;;;;;;3.23;2.93;;;;;;;9.79;100.00;99703.09;5080306;28;20657;-72
2023/04/25 00:59:03;;;;;;;4.03;3.30;;;;;;;9.85;100.00;99700.38;5080289;28;20210;-72
2023/04/25 01:01:29;;;;;;;4.07;3.77;;;;;;;9.85;100.00;99702.97;5059013;28;20280;-72
2023/04/25 01:03:55;;;;;;;7.73;7.10;;;;;;;9.86;100.00;99698.66;5078943;28;20584;-72
2023/04/25 01:06:22;;;;;;;5.53;5.13;;;;;;;9.85;100.00;99687.47;5072873;28;20193;-73
2023/04/25 01:08:47;;;;;;;11.47;10.57;;;;;;;9.83;100.00;99691.81;5079988;28;20824;-72
2023/04/25 01:11:13;;;;;;;10.73;9.93;;;;;;;9.80;100.00;99686.69;5074714;28;20189;-73
2023/04/25 01:13:38;;;;;;;10.80;9.90;;;;;;;9.79;100.00;99689.28;5076217;28;20196;-73
2023/04/25 01:16:04;;;;;;;8.13;7.47;;;;;;;9.79;100.00;99691.88;5078404;28;20277;-73
2023/04/25 01:18:29;;;;;;;10.70;9.90;;;;;;;9.79;100.00;99689.28;5075008;28;20213;-72
2023/04/25 01:20:55;;;;;;;12.60;11.53;;;;;;;9.79;100.00;99692.75;5077537;28;20243;-73
2023/04/25 01:23:21;;;;;;;11.90;11.00;;;;;;;9.80;100.00;99699.63;5078098;28;20281;-73
2023/04/25 01:25:48;;;;;;;14.13;13.03;;;;;;;9.83;100.00;99688.38;5078618;28;20196;-73
2023/04/25 01:28:14;;;;;;;13.60;12.60;;;;;;;9.81;100.00;99690.13;5079662;28;20250;-73
2023/04/25 01:30:40;;;;;;;11.90;11.17;;;;;;;9.80;100.00;99691.00;5077867;28;20284;-73
2023/04/25 01:33:08;;;;;;;8.00;7.40;;;;;;;9.79;100.00;99692.75;5078131;28;20284;-74
2023/04/25 01:35:33;;;;;;;6.40;6.00;;;;;;;9.77;100.00;99691.91;5074741;28;20208;-72
2023/04/25 01:37:59;;;;;;;8.93;8.43;;;;;;;9.76;100.00;99692.78;5077763;28;20278;-73
2023/04/25 01:40:24;;;;;;;5.87;5.47;;;;;;;9.75;100.00;99689.38;5077637;28;20766;-74
2023/04/25 01:42:51;;;;;;;4.97;4.67;;;;;;;9.74;100.00;99694.53;5080301;28;20704;-73
2023/04/25 01:45:17;;;;;;;4.73;4.33;;;;;;;9.73;100.00;99691.13;5077738;28;20514;-73
2023/04/25 01:47:43;;;;;;;4.27;3.97;;;;;;;9.73;100.00;99688.53;5057621;28;20232;-73
2023/04/25 01:50:10;;;;;;;4.53;4.13;;;;;;;9.74;100.00;99691.94;5079735;28;20192;-73
2023/04/25 01:52:36;;;;;;;4.53;4.17;;;;;;;9.72;100.00;99684.22;5080133;28;20194;-73
2023/04/25 01:55:02;;;;;;;4.27;3.97;;;;;;;9.70;100.00;99691.16;5080139;28;20657;-73
2023/04/25 01:57:27;;;;;;;4.87;4.47;;;;;;;9.70;100.00;99690.28;5080355;28;20240;-73
2023/04/25 02:00:00;;;;;;;5.07;4.67;;;;;;;9.68;100.00;99685.16;5078293;28;20296;-73
2023/04/25 02:02:26;;;;;;;4.13;3.83;;;;;;;9.69;100.00;99688.56;5083804;28;20185;-73
2023/04/25 02:04:51;;;;;;;4.07;3.77;;;;;;;9.72;100.00;99694.56;5077672;28;20193;-73
2023/04/25 02:07:16;;;;;;;3.83;3.57;;;;;;;9.72;100.00;99692.00;5077467;28;20575;-72
2023/04/25 02:09:42;;;;;;;3.53;3.30;;;;;;;9.74;100.00;99686.78;5078401;28;20723;-73
2023/04/25 02:12:09;;;;;;;4.00;3.77;;;;;;;9.77;100.00;99695.34;5078079;28;20614;-73
2023/04/25 02:14:34;;;;;;;3.40;3.17;;;;;;;9.80;100.00;99696.16;5060989;28;20968;-72
2023/04/25 02:17:00;;;;;;;5.13;3.93;;;;;;;9.82;100.00;99695.28;5076800;28;20291;-73
2023/04/25 02:19:25;;;;;;;4.20;3.50;;;;;;;9.84;100.00;99700.41;5081573;28;20225;-73
2023/04/25 02:21:50;;;;;;;4.20;3.90;;;;;;;9.84;100.00;99692.66;5080915;28;20189;-73
2023/04/25 02:24:16;;;;;;;4.23;3.93;;;;;;;9.81;100.00;99696.16;5081441;28;20197;-73
2023/04/25 02:26:41;;;;;;;4.50;4.10;;;;;;;9.81;100.00;99679.78;5079595;28;20285;-73
2023/04/25 02:29:07;;;;;;;4.63;4.33;;;;;;;9.80;100.00;99686.69;5077974;28;20202;-73
2023/04/25 02:31:32;;;;;;;4.43;4.10;;;;;;;9.78;100.00;99693.63;5078889;28;20192;-72
2023/04/25 02:33:57;;;;;;;4.13;3.83;;;;;;;9.73;100.00;99685.94;5062885;28;20230;-73
2023/04/25 02:36:23;;;;;;;4.33;4.03;;;;;;;9.72;100.00;99693.69;5080255;28;20273;-73
2023/04/25 02:38:49;;;;;;;3.87;3.57;;;;;;;9.72;100.00;99683.38;5063033;28;20228;-72
2023/04/25 02:41:14;;;;;;;4.10;3.80;;;;;;;9.72;100.00;99681.66;5082509;28;20304;-72
2023/04/25 02:43:40;;;;;;;3.80;3.50;;;;;;;9.70;100.00;99687.69;5064583;28;20279;-72
2023/04/25 02:46:07;;;;;;;3.80;3.50;;;;;;;9.71;100.00;99682.53;5080612;28;20219;-73
2023/04/25 02:48:32;;;;;;;3.70;3.50;;;;;;;9.70;100.00;99680.81;5083852;28;20197;-73
2023/04/25 02:50:58;;;;;;;3.90;3.60;;;;;;;9.70;100.00;99680.81;5061461;28;20223;-73
2023/04/25 02:53:23;;;;;;;3.47;3.20;;;;;;;9.70;100.00;99672.19;5081297;28;20189;-73
2023/04/25 02:55:49;;;;;;;3.67;3.47;;;;;;;9.70;100.00;99669.63;5063155;28;20264;-72
2023/04/25 02:58:15;;;;;;;3.90;3.60;;;;;;;9.69;100.00;99663.59;5080949;28;20209;-72
2023/04/25 03:00:40;;;;;;;3.63;3.30;;;;;;;9.68;100.00;99669.66;5080978;28;20205;-72
2023/04/25 03:03:05;;;;;;;4.20;3.90;;;;;;;9.66;100.00;99666.22;5083864;28;20184;-73
2023/04/25 03:05:31;;;;;;;3.60;3.37;;;;;;;9.65;100.00;99669.69;5081885;28;20196;-73
2023/04/25 03:07:56;;;;;;;3.70;3.40;;;;;;;9.65;100.00;99661.09;5062446;28;20201;-72
2023/04/25 03:10:21;;;;;;;3.80;3.50;;;;;;;9.65;100.00;99653.34;5078289;28;20185;-72
2023/04/25 03:12:47;;;;;;;3.63;3.40;;;;;;;9.66;100.00;99650.72;5077246;28;20648;-73
2023/04/25 03:15:12;;;;;;;3.63;3.33;;;;;;;9.65;100.00;99661.94;5079206;28;20280;-72
2023/04/25 03:17:37;;;;;;;3.80;3.50;;;;;;;9.65;100.00;99664.53;5062488;28;20593;-72
2023/04/25 03:20:04;;;;;;;3.90;3.60;;;;;;;9.67;100.00;99656.75;5079137;28;20213;-73
2023/04/25 03:22:29;;;;;;;3.83;3.53;;;;;;;9.67;100.00;99657.59;5078686;28;20255;-73
2023/04/25 03:24:54;;;;;;;3.93;3.63;;;;;;;9.66;100.00;99650.72;5080403;28;20963;-73
2023/04/25 03:27:20;;;;;;;3.70;3.50;;;;;;;9.63;100.00;99647.34;5078379;28;20216;-73
2023/04/25 03:29:45;;;;;;;3.30;3.10;;;;;;;9.61;100.00;99650.81;5081443;28;20196;-72
2023/04/25 03:32:10;;;;;;;3.80;3.50;;;;;;;9.60;100.00;99648.25;5071817;28;20187;-73
2023/04/25 03:34:35;;;;;;;3.80;3.50;;;;;;;9.59;100.00;99654.28;5074354;28;20994;-72
2023/04/25 03:37:01;;;;;;;3.63;3.33;;;;;;;9.59;100.00;99651.72;5079628;28;20203;-73
2023/04/25 03:39:26;;;;;;;3.50;3.30;;;;;;;9.59;100.00;99656.88;5081793;28;20890;-73
2023/04/25 03:41:52;;;;;;;3.50;3.30;;;;;;;9.60;100.00;99658.59;5081728;28;20190;-72
2023/04/25 03:44:17;;;;;;;3.50;3.30;;;;;;;9.61;100.00;99653.38;5079967;28;20222;-72
2023/04/25 03:46:42;;;;;;;3.40;3.20;;;;;;;9.62;100.00;99659.41;5078332;28;20579;-73
2023/04/25 03:49:08;;;;;;;4.03;3.73;;;;;;;9.64;100.00;99654.22;5074517;28;20222;-72
2023/04/25 03:51:33;;;;;;;3.80;3.60;;;;;;;9.65;100.00;99651.59;5077043;28;20181;-73
2023/04/25 03:53:58;;;;;;;3.93;3.63;;;;;;;9.66;100.00;99652.47;5081175;28;20658;-73
2023/04/25 03:56:24;;;;;;;4.30;3.90;;;;;;;9.64;100.00;99657.66;5078583;28;20909;-73
2023/04/25 03:58:49;;;;;;;3.70;3.40;;;;;;;9.63;100.00;99648.19;5073954;28;20216;-73
2023/04/25 04:01:14;;;;;;;3.97;3.70;;;;;;;9.63;100.00;99653.34;5060583;28;20285;-73
2023/04/25 04:03:40;;;;;;;3.90;3.60;;;;;;;9.62;100.00;99643.88;5078642;28;20204;-73
2023/04/25 04:06:06;;;;;;;4.57;4.17;;;;;;;9.60;100.00;99640.50;5077387;28;20198;-73
2023/04/25 04:08:32;;;;;;;4.30;4.00;;;;;;;9.58;100.00;99645.69;5078861;28;20220;-72
2023/04/25 04:10:58;;;;;;;4.00;3.70;;;;;;;9.57;100.00;99646.56;5079420;28;20202;-73
2023/04/25 04:13:26;;;;;;;4.40;4.00;;;;;;;9.54;100.00;99654.34;5081219;28;20216;-73
2023/04/25 04:15:52;;;;;;;4.20;3.90;;;;;;;9.52;100.00;99655.25;5078368;28;20598;-73
2023/04/25 04:18:17;;;;;;;4.00;3.70;;;;;;;9.51;100.00;99654.41;5080120;28;20217;-73
2023/04/25 04:20:43;;;;;;;4.10;3.80;;;;;;;9.51;100.00;99649.25;5083105;28;21164;-72
2023/04/25 04:23:08;;;;;;;3.63;3.40;;;;;;;9.49;100.00;99656.16;5081500;28;20180;-73
2023/04/25 04:25:34;;;;;;;4.23;3.93;;;;;;;9.45;100.00;99655.31;5063307;28;20224;-73
2023/04/25 04:28:00;;;;;;;4.13;3.80;;;;;;;9.46;100.00;99656.19;5079103;28;20295;-72
2023/04/25 04:30:29;;;;;;;4.30;3.97;;;;;;;9.46;100.00;99645.88;5080954;28;20193;-73
2023/04/25 04:32:55;;;;;;;4.30;3.90;;;;;;;9.45;100.00;99647.59;5080760;28;20192;-72
2023/04/25 04:35:21;;;;;;;4.67;4.27;;;;;;;9.46;100.00;99648.44;5080772;28;20201;-72
2023/04/25 04:37:47;;;;;;;4.23;3.87;;;;;;;9.46;100.00;99654.44;5079591;28;20212;-72
2023/04/25 04:40:15;;;;;;;3.87;3.60;;;;;;;9.46;100.00;99651.88;5077589;28;20205;-73
2023/04/25 04:42:41;;;;;;;4.40;4.10;;;;;;;9.46;100.00;99657.03;5080234;28;20187;-73
2023/04/25 04:45:07;;;;;;;4.30;3.90;;;;;;;9.46;100.00;99651.88;5079278;28;20181;-73
2023/04/25 04:47:33;;;;;;;4.50;4.00;;;;;;;9.48;100.00;99653.56;5077170;28;20625;-73
2023/04/25 04:49:59;;;;;;;4.40;4.00;;;;;;;9.48;100.00;99653.56;5078341;28;20188;-73
2023/04/25 04:52:24;;;;;;;4.17;3.87;;;;;;;9.47;100.00;99657.91;5080167;28;20729;-74
2023/04/25 04:54:49;;;;;;;4.30;3.90;;;;;;;9.48;100.00;99657.03;5081053;28;20199;-73
2023/04/25 04:57:16;;;;;;;4.77;4.40;;;;;;;9.49;100.00;99661.31;5081411;28;20269;-73
2023/04/25 04:59:41;;;;;;;4.43;4.13;;;;;;;9.50;100.00;99673.38;5060674;28;20977;-72
2023/04/25 05:02:06;;;;;;;4.40;4.10;;;;;;;9.51;100.00;99669.03;5080722;28;20185;-74
2023/04/25 05:04:32;;;;;;;4.10;3.80;;;;;;;9.51;100.00;99674.22;5081347;28;20212;-73
2023/04/25 05:06:57;;;;;;;3.90;3.63;;;;;;;9.53;100.00;99673.28;5082770;28;20209;-73
2023/04/25 05:09:25;;;;;;;4.43;4.10;;;;;;;9.54;100.00;99669.84;5076046;28;20185;-74
2023/04/25 05:11:51;;;;;;;4.13;3.83;;;;;;;9.55;100.00;99675.88;5076169;28;20192;-73
2023/04/25 05:14:17;;;;;;;4.30;4.00;;;;;;;9.57;100.00;99679.28;5080354;28;20667;-73
2023/04/25 05:16:43;;;;;;;4.40;4.00;;;;;;;9.58;100.00;99678.41;5080915;28;20326;-73
2023/04/25 05:19:08;;;;;;;4.20;3.90;;;;;;;9.61;100.00;99679.22;5074701;28;20215;-73
2023/04/25 05:21:34;;;;;;;3.80;3.50;;;;;;;9.65;100.00;99676.59;5086034;28;20198;-73
2023/04/25 05:24:00;;;;;;;4.20;3.90;;;;;;;9.69;100.00;99678.25;5084194;28;20321;-73
2023/04/25 05:26:25;;;;;;;3.23;2.97;;;;;;;9.74;100.00;99682.47;5081553;28;20185;-74
2023/04/25 05:28:50;;;;;;;3.73;3.50;;;;;;;9.81;100.00;99672.91;5077948;28;20204;-73
2023/04/25 05:31:16;;;;;;;3.57;3.37;;;;;;;9.90;100.00;99669.31;5077257;28;20703;-73
2023/04/25 05:33:41;;;;;;;4.50;4.10;;;;;;;9.97;100.00;99678.66;5078259;28;20270;-73
2023/04/25 05:36:07;;;;;;;4.40;4.00;;;;;;;10.03;100.00;99673.41;5084454;28;20762;-73
2023/04/25 05:38:32;;;;;;;3.50;3.30;;;;;;;10.10;100.00;99673.28;5083741;28;20692;-73
2023/04/25 05:40:58;;;;;;;4.00;3.70;;;;;;;10.14;100.00;99677.53;5084524;28;20242;-72
2023/04/25 05:43:23;;;;;;;3.53;3.30;;;;;;;10.16;100.00;99684.38;5078396;28;20197;-73
2023/04/25 05:45:49;;;;;;;3.30;3.00;;;;;;;10.14;100.00;99685.28;5087235;28;20192;-73
2023/04/25 05:48:14;;;;;;;3.53;3.23;;;;;;;10.14;100.00;99686.13;5080693;28;20703;-73
2023/04/25 05:50:39;;;;;;;4.13;3.83;;;;;;;10.10;100.00;99678.47;5067605;28;20639;-73
2023/04/25 05:53:05;;;;;;;4.50;3.97;;;;;;;10.03;100.00;99686.34;5077497;28;20185;-73
2023/04/25 05:55:31;;;;;;;4.20;3.80;;;;;;;9.98;100.00;99687.28;5087415;28;20181;-73
2023/04/25 05:57:56;;;;;;;4.33;4.00;;;;;;;9.93;100.00;99691.69;5086646;28;20252;-74
2023/04/25 06:00:22;;;;;;;4.13;3.83;;;;;;;9.86;100.00;99689.19;5084906;28;20572;-73
2023/04/25 06:02:48;;;;;;;4.27;3.97;;;;;;;9.81;100.00;99692.72;5080480;28;20185;-73
2023/04/25 06:05:13;;;;;;;3.83;3.60;;;;;;;9.75;100.00;99697.13;5088425;28;20275;-73
2023/04/25 06:07:38;;;;;;;3.70;3.30;;;;;;;9.73;100.00;99695.41;5085108;28;20248;-73
2023/04/25 06:10:06;;;;;;;4.13;3.73;;;;;;;9.72;100.00;99696.28;5083658;28;20220;-73
2023/04/25 06:12:32;;;;;;;4.30;4.00;;;;;;;9.72;100.00;99698.88;5085858;28;20238;-73
2023/04/25 06:14:58;;;;;;;4.33;4.00;;;;;;;9.72;100.00;99696.28;5086093;28;20221;-73
2023/04/25 06:17:23;;;;;;;4.43;4.13;;;;;;;9.69;100.00;99704.94;5088034;28;20240;-73
2023/04/25 06:19:48;;;;;;;4.23;3.93;;;;;;;9.69;100.00;99702.38;5085929;28;20291;-73
2023/04/25 06:22:14;;;;;;;4.00;3.70;;;;;;;9.69;100.00;99707.53;5085075;28;20560;-73
2023/04/25 06:24:39;;;;;;;3.60;3.30;;;;;;;9.68;100.00;99699.81;5086683;28;20378;-74
2023/04/25 06:27:04;;;;;;;4.30;4.00;;;;;;;9.66;100.00;99710.16;5081028;28;20233;-75
2023/04/25 06:29:30;;;;;;;4.37;4.07;;;;;;;9.64;100.00;99711.91;5066962;28;20323;-74
2023/04/25 06:31:55;;;;;;;4.20;3.90;;;;;;;9.66;100.00;99711.91;5081137;28;20274;-74
2023/04/25 06:34:21;;;;;;;3.97;3.67;;;;;;;9.68;100.00;99710.16;5086375;28;20220;-75
2023/04/25 06:36:46;;;;;;;4.23;3.87;;;;;;;9.68;100.00;99713.56;5080492;28;20192;-75
2023/04/25 06:39:11;;;;;;;3.70;3.40;;;;;;;9.68;100.00;99712.72;5079427;28;20266;-74
2023/04/25 06:41:37;;;;;;;3.73;3.47;;;;;;;9.67;100.00;99717.03;5082325;28;20220;-74
2023/04/25 06:44:02;;;;;;;3.80;3.50;;;;;;;9.71;100.00;99720.41;5063907;28;20195;-75
2023/04/25 06:46:27;;;;;;;3.70;3.40;;;;;;;9.74;100.00;99718.66;5079762;28;20605;-73
2023/04/25 06:48:53;;;;;;;5.00;3.80;;;;;;;9.77;100.00;99718.59;5064821;28;20204;-74
2023/04/25 06:51:18;;;;;;;3.53;3.20;;;;;;;9.80;100.00;99719.44;5085790;28;20189;-74
2023/04/25 06:53:43;;;;;;;3.63;3.43;;;;;;;9.82;100.00;99721.13;5083419;28;20185;-74
2023/04/25 06:56:09;;;;;;;3.57;3.37;;;;;;;9.83;100.00;99727.13;5085503;28;20184;-74
2023/04/25 06:58:34;;;;;;;3.73;3.43;;;;;;;9.80;100.00;99733.22;5083507;28;20209;-75
2023/04/25 07:01:00;;;;;;;3.80;3.50;;;;;;;9.77;100.00;99731.50;5080832;28;20194;-74
2023/04/25 07:03:25;;;;;;;4.03;3.73;;;;;;;9.77;100.00;99731.50;5084646;28;20280;-74
2023/04/25 07:05:50;;;;;;;3.87;3.57;;;;;;;9.77;100.00;99733.25;5086493;28;20427;-75
2023/04/25 07:08:16;;;;;;;4.40;3.97;;;;;;;9.78;100.00;99734.97;5084173;28;20953;-74
2023/04/25 07:10:41;;;;;;;4.37;3.97;;;;;;;9.77;100.00;99734.09;5084334;28;20294;-75
2023/04/25 07:13:07;;;;;;;4.53;4.23;;;;;;;9.76;100.00;99742.72;5081105;28;20223;-74
2023/04/25 07:15:33;;;;;;;4.03;3.73;;;;;;;9.76;100.00;99737.56;5082908;28;20181;-75
2023/04/25 07:17:58;;;;;;;3.87;3.57;;;;;;;9.80;100.00;99745.28;5083271;28;20213;-75
2023/04/25 07:20:23;;;;;;;4.20;3.90;;;;;;;9.83;100.00;99746.06;5084251;28;20652;-75
2023/04/25 07:22:49;;;;;;;4.60;4.20;;;;;;;9.90;100.00;99749.44;5081029;28;20523;-75
2023/04/25 07:25:15;;;;;;;5.00;4.40;;;;;;;9.97;100.00;99750.22;5084409;28;20207;-73
2023/04/25 07:27:41;;;;;;;5.07;4.57;;;;;;;9.99;100.00;99753.59;5083122;28;20212;-75
2023/04/25 07:30:07;;;;;;;4.67;4.27;;;;;;;10.00;100.00;99752.72;5085518;28;20186;-74
2023/04/25 07:32:32;;;;;;;5.00;4.60;;;;;;;10.00;100.00;99752.72;5085162;28;20654;-75
2023/04/25 07:34:57;;;;;;;5.07;4.57;;;;;;;9.98;100.00;99762.25;5085285;28;20197;-76
2023/04/25 07:37:23;;;;;;;5.13;4.73;;;;;;;9.96;100.00;99764.84;5065705;28;20238;-76
2023/04/25 07:39:48;;;;;;;5.23;4.73;;;;;;;9.97;100.00;99768.31;5067563;28;20220;-75
2023/04/25 07:42:14;;;;;;;5.23;4.83;;;;;;;10.02;100.00;99769.94;5066154;28;20193;-74
2023/04/25 07:44:40;;;;;;;6.07;5.57;;;;;;;10.05;100.00;99769.91;5063171;28;20659;-75
2023/04/25 07:47:09;;;;;;;5.27;4.77;;;;;;;10.11;100.00;99775.84;5080578;28;20214;-74
2023/04/25 07:49:35;;;;;;;5.00;4.60;;;;;;;10.16;100.00;99777.47;5081517;28;20676;-75
2023/04/25 07:52:01;;;;;;;4.67;4.37;;;;;;;10.23;100.00;99783.41;5066398;28;20189;-74
2023/04/25 07:54:27;;;;;;;5.67;5.27;;;;;;;10.28;100.00;99778.19;5088636;28;20665;-75
2023/04/25 07:56:52;;;;;;;5.17;4.77;;;;;;;10.31;100.00;99786.72;5085716;28;20208;-74
2023/04/25 07:59:17;;;;;;;5.23;4.83;;;;;;;10.37;100.00;99793.53;5087953;28;20205;-76
2023/04/25 08:01:43;;;;;;;4.83;4.50;;;;;;;10.42;100.00;99791.78;5093379;28;20209;-74
2023/04/25 08:04:08;;;;;;;4.33;4.03;;;;;;;10.52;100.00;99800.22;5090854;28;20216;-74
2023/04/25 08:06:33;;;;;;;4.07;3.77;;;;;;;10.60;100.00;99798.34;5066597;28;20185;-74
2023/04/25 08:08:59;;;;;;;4.57;4.17;;;;;;;10.67;100.00;99807.72;5083212;28;20488;-74
2023/04/25 08:11:25;;;;;;;3.60;3.40;;;;;;;10.72;100.00;99806.78;5081727;28;20204;-74
2023/04/25 08:13:50;;;;;;;4.40;4.10;;;;;;;10.76;100.00;99805.88;5080965;28;20315;-74
2023/04/25 08:16:15;;;;;;;3.70;3.40;;;;;;;10.78;100.00;99809.28;5080134;28;21217;-75
2023/04/25 08:18:41;;;;;;;3.87;3.57;;;;;;;10.78;100.00;99817.88;5080710;28;20233;-75
2023/04/25 08:21:08;;;;;;;4.83;4.53;;;;;;;10.79;100.00;99821.34;5080772;28;20189;-74
2023/04/25 08:23:34;;;;;;;5.20;4.70;;;;;;;10.82;100.00;99819.56;5081450;28;20197;-74
2023/04/25 08:25:59;;;;;;;4.43;4.03;;;;;;;10.86;100.00;99828.09;5082558;28;20814;-74
2023/04/25 08:28:25;;;;;;;4.53;4.23;;;;;;;10.88;100.00;99833.28;5081270;28;20587;-74
2023/04/25 08:30:50;;;;;;;5.10;4.70;;;;;;;10.87;100.00;99839.34;5079799;28;20192;-75
2023/04/25 08:33:15;;;;;;;4.40;4.00;;;;;;;10.89;100.00;99848.78;5081583;28;20388;-74
2023/04/25 08:35:40;;;;;;;4.30;4.00;;;;;;;10.89;100.00;99847.94;5081602;28;20228;-77
2023/04/25 08:38:06;;;;;;;4.17;3.87;;;;;;;10.86;100.00;99848.81;5076929;28;20826;-74
2023/04/25 08:40:37;;;;;;;4.33;4.03;;;;;;;10.83;100.00;99856.63;5079289;28;20300;-75
2023/04/25 08:43:04;;;;;;;4.13;3.83;;;;;;;10.81;100.00;99861.00;5081950;28;20186;-74
2023/04/25 08:45:31;;;;;;;4.00;3.70;;;;;;;10.81;100.00;99864.44;5081967;28;20200;-74
2023/04/25 08:47:57;;;;;;;4.93;4.00;;;;;;;10.80;100.00;99865.31;5078974;28;20217;-73
2023/04/25 08:50:23;;;;;;;4.60;4.20;;;;;;;10.79;100.00;99875.69;5078201;28;20184;-74
2023/04/25 08:52:52;;;;;;;4.50;4.20;;;;;;;10.74;100.00;99875.75;5081529;28;20195;-75
2023/04/25 08:55:18;;;;;;;4.90;4.50;;;;;;;10.69;100.00;99867.22;5077672;28;20278;-76
2023/04/25 08:57:44;;;;;;;5.13;4.70;;;;;;;10.62;100.00;99875.94;5061330;28;20215;-75
2023/04/25 09:00:12;;;;;;;5.60;5.10;;;;;;;10.56;100.00;99889.84;5078701;28;20268;-74
2023/04/25 09:02:38;;;;;;;5.03;4.63;;;;;;;10.54;100.00;99880.41;5081179;28;20197;-75
2023/04/25 09:05:06;;;;;;;5.87;5.37;;;;;;;10.54;100.00;99888.16;5079373;28;20614;-75
2023/04/25 09:07:31;;;;;;;5.83;5.43;;;;;;;10.58;100.00;99889.84;5063372;28;20221;-75
2023/04/25 09:09:59;;;;;;;6.27;5.77;;;;;;;10.61;100.00;99892.34;5080005;28;20181;-74
2023/04/25 09:12:25;;;;;;;5.30;5.00;;;;;;;10.69;100.00;99900.88;5080807;28;20580;-75
2023/04/25 09:15:07;;;;;;;4.87;4.57;;;;;;;10.82;100.00;99896.34;5077829;28;20202;-76
2023/04/25 09:17:32;;;;;;;5.17;4.83;;;;;;;10.96;100.00;99901.31;5077449;28;20217;-75
2023/04/25 09:20:12;;;;;;;4.70;4.30;;;;;;;11.12;100.00;99902.75;5078440;28;20236;-75
2023/04/25 09:22:39;;;;;;;4.30;4.00;;;;;;;11.21;100.00;99898.28;5078991;28;20669;-75
2023/04/25 09:25:09;;;;;;;4.50;4.20;;;;;;;11.27;100.00;99906.78;5081885;28;20188;-75
2023/04/25 09:27:35;;;;;;;3.77;3.47;;;;;;;11.36;100.00;99910.94;5061594;28;20205;-75
2023/04/25 09:30:01;;;;;;;3.50;3.30;;;;;;;11.57;100.00;99925.25;5060431;28;20803;-74
2023/04/25 09:32:27;;;;;;;3.70;3.40;;;;;;;11.88;100.00;99927.22;5080439;28;20784;-74
2023/04/25 09:34:55;;;;;;;3.53;3.20;;;;;;;12.22;100.00;99928.31;5054763;28;20260;-76
2023/04/25 09:37:23;;;;;;;2.83;2.63;;;;;;;12.50;100.00;99931.16;5073419;28;20209;-75
2023/04/25 09:39:51;;;;;;;2.33;2.23;;;;;;;12.81;100.00;99938.22;5057948;28;20268;-75
2023/04/25 09:42:17;;;;;;;2.53;2.33;;;;;;;13.08;100.00;99937.59;5061146;28;20196;-75
2023/04/25 09:44:44;;;;;;;2.40;2.20;;;;;;;13.19;100.00;99932.97;5079280;28;20193;-75
2023/04/25 09:47:12;;;;;;;3.47;2.20;;;;;;;13.20;100.00;99934.69;5074670;28;20253;-76
2023/04/25 09:49:42;;;;;;;2.50;2.30;;;;;;;13.14;100.00;99939.19;5077884;28;20647;-76
2023/04/25 09:52:09;;;;;;;2.40;2.20;;;;;;;13.04;100.00;99954.13;5058370;28;20192;-75
2023/04/25 09:54:34;;;;;;;1.93;1.83;;;;;;;12.96;100.00;99952.59;5079362;28;20191;-75
2023/04/25 09:57:11;;;;;;;2.00;1.90;;;;;;;12.94;100.00;99951.78;5080734;28;20577;-75
2023/04/25 09:59:40;;;;;;;2.57;2.37;;;;;;;12.97;100.00;99961.22;5079935;28;20327;-73
2023/04/25 10:02:08;;;;;;;2.20;2.10;;;;;;;13.00;100.00;99955.13;5077131;28;20686;-75
2023/04/25 10:04:35;;;;;;;2.07;1.97;;;;;;;12.98;100.00;99962.94;5064204;28;20200;-75
2023/04/25 10:07:07;;;;;;;2.10;1.90;;;;;;;12.92;100.00;99960.50;5060136;28;20565;-75
2023/04/25 10:09:34;;;;;;;2.37;2.20;;;;;;;12.84;100.00;99965.00;5065523;28;20180;-74
2023/04/25 10:12:00;;;;;;;2.63;2.43;;;;;;;12.72;100.00;99960.94;5080311;28;20197;-75
2023/04/25 10:14:26;;;;;;;2.53;2.33;;;;;;;12.64;100.00;99963.72;5064546;28;20256;-75
2023/04/25 10:16:53;;;;;;;2.13;2.03;;;;;;;12.59;100.00;99971.63;5066213;28;20223;-75
2023/04/25 10:19:20;;;;;;;2.30;2.10;;;;;;;12.47;100.00;99967.56;5064489;28;20203;-75
2023/04/25 10:21:56;;;;;;;2.53;1.93;;;;;;;12.39;100.00;99977.25;5083544;28;20239;-74
2023/04/25 10:24:22;;;;;;;1.70;1.60;;;;;;;12.34;100.00;99977.34;5062910;28;20421;-75
2023/04/25 10:26:48;;;;;;;1.90;1.80;;;;;;;12.25;100.00;99974.94;5083427;28;20192;-74
2023/04/25 10:29:25;;;;;;;2.57;2.27;;;;;;;12.14;100.00;99977.78;5066012;28;20218;-75
2023/04/25 10:31:51;;;;;;;2.47;2.27;;;;;;;12.02;100.00;99984.06;5063618;28;20839;-75
2023/04/25 10:34:17;;;;;;;2.87;2.67;;;;;;;11.93;100.00;99998.91;5064443;28;20194;-75
2023/04/25 10:36:50;;;;;;;3.37;3.07;;;;;;;11.79;100.00;100001.78;5083629;28;20238;-75
2023/04/25 10:39:22;;;;;;;5.93;5.50;;;;;;;10.98;100.00;100003.94;5064401;28;20574;-75
2023/04/25 10:41:56;;;;;;;6.57;6.07;;;;;;;10.26;100.00;100016.13;5083209;28;20220;-75
2023/04/25 10:44:22;;;;;;;7.27;6.60;;;;;;;9.61;100.00;100022.84;5063770;28;20994;-75
2023/04/25 10:46:47;;;;;;;7.97;7.27;;;;;;;9.20;100.00;100023.19;5081923;28;20195;-74
2023/04/25 10:49:35;;;;;;;10.23;9.43;;;;;;;8.95;100.00;100031.09;5083598;28;20538;-75
2023/04/25 10:52:26;;;;;;;14.73;13.40;;;;;;;8.71;100.00;100032.94;5064274;28;20240;-75
2023/04/25 10:54:56;;;;;;;15.73;14.23;;;;;;;8.59;100.00;100036.47;5080218;28;20189;-74
2023/04/25 10:57:44;;;;;;;20.83;17.20;;;;;;;8.60;100.00;100032.16;5063461;28;20204;-73
2023/04/25 11:00:15;;;;;;;21.93;17.73;;;;;;;8.74;100.00;100034.66;5079112;28;20251;-73
2023/04/25 11:02:46;;;;;;;24.77;19.90;;;;;;;8.72;100.00;100034.66;5083821;28;20185;-73
2023/04/25 11:05:34;;;;;;;28.73;21.33;;;;;;;8.81;100.00;100033.75;5077245;28;20222;-72
2023/04/25 11:08:01;;;;;;;40.73;26.03;;;;;;;8.88;100.00;100034.56;5081835;28;20772;-74
2023/04/25 11:10:31;;;;;;;35.90;25.57;;;;;;;8.91;100.00;100037.13;5080417;28;20373;-74
2023/04/25 11:12:58;;;;;;;32.10;24.53;;;;;;;8.92;100.00;100036.28;5083656;28;20196;-73
2023/04/25 11:15:24;;;;;;;33.37;26.30;;;;;;;9.02;100.00;100037.94;5079913;28;20181;-73
2023/04/25 11:17:54;;;;;;;36.50;27.60;;;;;;;9.09;100.00;100031.88;5079958;28;20201;-74
2023/04/25 11:20:20;;;;;;;40.80;28.13;;;;;;;9.17;100.00;100038.69;5079492;28;20200;-73
2023/04/25 11:22:46;;;;;;;35.40;26.93;;;;;;;9.34;100.00;100049.75;5080775;28;20193;-75
2023/04/25 11:25:13;;;;;;;30.17;23.70;;;;;;;9.53;100.00;100042.69;5082851;28;20185;-74